Time;durP1;ratioP1;P1;durP2;ratioP2;P2;SDS_P1;SDS_P2;PMS_P1;PMS_P2;Temp;Humidity;BMP_temperature;BMP_pressure;BME280_temperature;BME280_humidity;BME280_pressure;Samples;Min_cycle;Max_cycle;Signal;HPM_P1;HPM_P2
2022/07/17 00:00:47;;;;;;;3.35;2.50;;;;;;;23.40;52.61;94768.78;4922878;29;20031;-90
2022/07/17 00:03:15;;;;;;;4.20;2.97;;;;;;;23.13;53.40;94774.47;4922298;29;20028;-91
2022/07/17 00:05:41;;;;;;;3.50;2.58;;;;;;;22.99;53.42;94768.72;4954361;29;20032;-90
2022/07/17 00:08:08;;;;;;;4.22;2.70;;;;;;;22.95;53.51;94770.53;4922405;29;20035;-90
2022/07/17 00:10:34;;;;;;;8.95;2.78;;;;;;;22.96;52.67;94774.75;4938314;29;20037;-90
2022/07/17 00:13:00;;;;;;;5.18;2.67;;;;;;;22.95;53.21;94767.84;4938081;29;20028;-90
2022/07/17 00:15:26;;;;;;;4.97;2.47;;;;;;;22.89;52.46;94769.97;4922386;29;20032;-90
2022/07/17 00:17:51;;;;;;;3.80;2.50;;;;;;;22.99;52.65;94766.84;4922262;29;20224;-90
2022/07/17 00:20:17;;;;;;;8.30;2.83;;;;;;;22.83;54.52;94766.75;4906577;29;20028;-90
2022/07/17 00:22:43;;;;;;;5.13;2.45;;;;;;;22.70;54.32;94771.34;4922250;29;20035;-90
2022/07/17 00:25:09;;;;;;;3.92;2.80;;;;;;;22.67;54.40;94772.00;4938215;29;20130;-90
2022/07/17 00:27:35;;;;;;;6.85;2.65;;;;;;;22.60;54.17;94774.44;4937941;29;20032;-90
2022/07/17 00:30:00;;;;;;;3.63;2.40;;;;;;;22.58;54.56;94774.78;4939123;29;20035;-91
2022/07/17 00:32:26;;;;;;;4.05;2.88;;;;;;;22.62;53.55;94772.22;4922155;29;20035;-91
2022/07/17 00:34:51;;;;;;;7.72;2.28;;;;;;;22.65;53.45;94779.56;4957478;29;20035;-90
2022/07/17 00:37:17;;;;;;;4.57;2.80;;;;;;;22.63;54.33;94773.00;4941769;29;20440;-90
2022/07/17 00:39:43;;;;;;;3.40;2.60;;;;;;;22.63;54.38;94771.09;4941667;29;20032;-90
2022/07/17 00:42:16;;;;;;;2.75;2.40;;;;;;;22.76;52.84;94774.56;4957803;29;20036;-90
2022/07/17 00:44:42;;;;;;;3.90;2.55;;;;;;;22.64;53.04;94778.00;4942664;29;20082;-90
2022/07/17 00:47:13;;;;;;;4.60;2.70;;;;;;;22.57;53.30;94777.78;4942667;29;20032;-90
2022/07/17 00:49:39;;;;;;;6.80;2.58;;;;;;;22.44;53.76;94775.09;4941627;29;20040;-90
2022/07/17 00:52:17;;;;;;;10.30;2.85;;;;;;;22.45;52.77;94776.63;4925750;29;20051;-90
2022/07/17 00:54:43;;;;;;;4.57;2.20;;;;;;;22.39;53.13;94772.66;4941404;29;20028;-90
2022/07/17 00:57:12;;;;;;;4.07;2.60;;;;;;;22.30;54.45;94774.63;4925618;29;20327;-91
2022/07/17 00:59:38;;;;;;;2.78;2.30;;;;;;;22.39;53.42;94772.66;4925760;29;20344;-90
2022/07/17 01:02:09;;;;;;;3.63;2.47;;;;;;;22.40;53.14;94774.19;4957259;29;20064;-90
2022/07/17 01:04:36;;;;;;;3.78;2.55;;;;;;;22.41;53.45;94772.28;4941299;29;20070;-90
2022/07/17 01:07:04;;;;;;;3.28;2.38;;;;;;;22.33;53.64;94768.63;4957140;29;20024;-90
2022/07/17 01:09:30;;;;;;;4.68;2.08;;;;;;;22.34;53.44;94772.09;4941315;29;20070;-90
2022/07/17 01:11:56;;;;;;;7.68;2.20;;;;;;;22.39;53.59;94774.53;4925497;29;20500;-90
2022/07/17 01:14:26;;;;;;;2.45;1.98;;;;;;;22.34;53.35;94774.75;4924995;29;20158;-90
2022/07/17 01:16:52;;;;;;;4.70;2.40;;;;;;;22.32;53.50;94777.75;4940994;29;20035;-91
2022/07/17 01:19:18;;;;;;;4.70;2.13;;;;;;;22.20;54.08;94783.06;4925081;29;20054;-90
2022/07/17 01:21:46;;;;;;;3.20;2.17;;;;;;;22.20;54.47;94783.06;4925216;29;20035;-90
2022/07/17 01:24:13;;;;;;;3.92;2.25;;;;;;;22.21;54.17;94782.75;4925262;29;20145;-90
2022/07/17 01:26:43;;;;;;;2.40;2.20;;;;;;;22.17;55.20;94776.53;4957024;29;20042;-90
2022/07/17 01:29:10;;;;;;;4.25;2.20;;;;;;;22.18;55.15;94784.19;4925241;29;20464;-89
2022/07/17 01:34:57;;;;;;;3.97;2.65;;;;;;;22.31;54.52;94786.88;4941942;29;20042;-91
2022/07/17 01:37:23;;;;;;;5.38;2.75;;;;;;;22.23;55.98;94790.41;4924737;29;20027;-90
2022/07/17 01:39:55;;;;;;;2.58;2.03;;;;;;;22.15;54.98;94779.50;4956541;29;20037;-90
2022/07/17 01:42:21;;;;;;;2.88;2.28;;;;;;;22.26;55.53;94790.53;4924945;29;20107;-89
2022/07/17 01:44:47;;;;;;;3.13;2.20;;;;;;;22.17;54.91;94787.19;4933865;29;20302;-89
2022/07/17 01:47:16;;;;;;;4.68;2.70;;;;;;;22.28;55.67;94795.53;4927850;29;20047;-89
2022/07/17 01:49:52;;;;;;;7.15;2.58;;;;;;;22.23;54.40;94793.84;4943507;29;20055;-90
2022/07/17 01:52:18;;;;;;;7.10;2.40;;;;;;;22.38;54.14;94792.44;4927996;29;20039;-90
2022/07/17 01:54:44;;;;;;;4.57;2.38;;;;;;;22.55;52.33;94799.47;4943310;29;20082;-89
2022/07/17 01:57:11;;;;;;;2.95;2.30;;;;;;;22.50;53.09;94796.25;4958927;29;20046;-90
2022/07/17 01:59:37;;;;;;;4.72;2.17;;;;;;;22.46;53.06;94802.22;4959909;29;20455;-89
2022/07/17 02:02:04;;;;;;;3.83;2.30;;;;;;;22.58;52.16;94798.03;4943663;29;20031;-90
2022/07/17 02:04:31;;;;;;;3.60;2.53;;;;;;;22.56;52.16;94801.03;4960341;29;20031;-91
2022/07/17 02:06:56;;;;;;;10.45;2.40;;;;;;;22.54;52.43;94799.81;4943375;29;20031;-90
2022/07/17 02:09:22;;;;;;;2.88;2.28;;;;;;;22.56;52.20;94802.94;4943231;29;20031;-90
2022/07/17 02:11:48;;;;;;;4.13;2.30;;;;;;;22.61;52.44;94800.03;4975081;28;20031;-90
2022/07/17 02:14:13;;;;;;;3.88;2.13;;;;;;;22.62;52.82;94801.59;4959259;29;20034;-90
2022/07/17 02:16:39;;;;;;;2.67;2.05;;;;;;;22.61;52.89;94801.94;4975086;28;20035;-89
2022/07/17 02:19:04;;;;;;;9.80;2.42;;;;;;;22.60;52.85;94803.81;4959869;29;20046;-89
2022/07/17 02:21:30;;;;;;;5.13;2.50;;;;;;;22.56;53.15;94805.59;4943229;29;20031;-91
2022/07/17 02:23:56;;;;;;;4.05;2.13;;;;;;;22.46;53.58;94802.22;4959010;29;20034;-91
2022/07/17 02:26:21;;;;;;;3.20;2.35;;;;;;;22.42;54.46;94806.69;4942993;29;20031;-89
2022/07/17 02:28:47;;;;;;;4.28;2.38;;;;;;;22.39;54.89;94812.69;4975291;28;20030;-90
2022/07/17 02:31:12;;;;;;;2.83;2.25;;;;;;;22.23;55.15;94814.41;4959317;29;20158;-89
2022/07/17 02:33:38;;;;;;;4.60;2.53;;;;;;;22.29;54.36;94813.88;4942279;29;20031;-89
2022/07/17 02:36:04;;;;;;;2.53;2.33;;;;;;;22.42;55.72;94817.34;4942945;29;20110;-89
2022/07/17 02:38:29;;;;;;;3.08;2.13;;;;;;;22.30;56.12;94807.41;4943197;29;20408;-89
2022/07/17 02:40:54;;;;;;;4.10;2.45;;;;;;;22.10;56.00;94808.28;4942997;29;20037;-89
2022/07/17 02:43:20;;;;;;;3.28;2.30;;;;;;;22.17;55.16;94816.53;4927491;29;20027;-89
2022/07/17 02:45:45;;;;;;;3.80;2.40;;;;;;;22.14;55.53;94811.84;4958958;29;20027;-90
2022/07/17 02:48:11;;;;;;;4.50;2.50;;;;;;;22.39;55.35;94812.69;4942546;29;20102;-90
2022/07/17 02:50:36;;;;;;;8.20;2.80;;;;;;;22.25;55.42;94815.66;4942517;29;20031;-90
2022/07/17 02:53:02;;;;;;;4.70;2.60;;;;;;;22.19;55.97;94806.31;4942520;29;20023;-89
2022/07/17 02:55:27;;;;;;;3.47;2.30;;;;;;;22.28;55.52;94814.22;4942232;29;20043;-90
2022/07/17 02:57:53;;;;;;;4.55;2.45;;;;;;;22.38;55.88;94815.69;4942048;29;20031;-89
2022/07/17 03:00:20;;;;;;;3.20;2.30;;;;;;;22.38;55.17;94821.81;4942383;29;20409;-89
2022/07/17 03:02:46;;;;;;;3.72;2.40;;;;;;;22.36;56.93;94818.66;4942632;29;20031;-90
2022/07/17 03:05:13;;;;;;;6.00;2.65;;;;;;;22.40;56.30;94824.91;4942341;29;20035;-90
2022/07/17 03:07:38;;;;;;;3.85;2.55;;;;;;;22.41;56.58;94817.69;4942574;29;20031;-90
2022/07/17 03:10:04;;;;;;;7.45;2.85;;;;;;;22.56;57.22;94810.94;4942110;29;20348;-89
2022/07/17 03:12:30;;;;;;;4.38;2.75;;;;;;;22.37;58.33;94817.56;4942350;29;20349;-89
2022/07/17 03:14:55;;;;;;;8.77;3.15;;;;;;;22.02;62.48;94823.28;4942257;29;20035;-89
2022/07/17 03:17:21;;;;;;;6.05;2.70;;;;;;;22.01;61.53;94819.06;4926448;29;20035;-90
2022/07/17 03:19:46;;;;;;;8.02;3.25;;;;;;;22.09;62.02;94828.84;4958167;28;20031;-89
2022/07/17 03:22:12;;;;;;;3.75;3.08;;;;;;;21.93;64.00;94825.25;4926540;29;20344;-90
2022/07/17 03:24:37;;;;;;;3.58;2.55;;;;;;;22.02;63.77;94833.94;4941785;29;20039;-89
2022/07/17 03:27:03;;;;;;;3.33;2.60;;;;;;;22.22;63.44;94834.22;4942594;29;20027;-90
2022/07/17 03:29:28;;;;;;;4.80;2.70;;;;;;;22.02;63.92;94836.63;4958964;29;20334;-89
2022/07/17 03:31:53;;;;;;;3.75;2.50;;;;;;;21.93;67.01;94835.91;4958173;29;20066;-89
2022/07/17 03:34:19;;;;;;;3.15;2.85;;;;;;;21.84;66.15;94839.44;4942244;29;20024;-89
2022/07/17 03:36:45;;;;;;;5.50;2.88;;;;;;;21.93;66.83;94841.25;4941936;29;20038;-89
2022/07/17 03:39:10;;;;;;;4.65;2.83;;;;;;;21.55;68.72;94840.28;4941957;29;20061;-89
2022/07/17 03:41:36;;;;;;;4.93;3.30;;;;;;;21.80;66.06;94849.19;4942213;29;20031;-89
2022/07/17 03:44:01;;;;;;;4.60;2.70;;;;;;;21.76;66.51;94853.63;4942018;29;20455;-90
2022/07/17 03:46:27;;;;;;;5.45;2.70;;;;;;;21.82;67.56;94859.53;4958628;29;20033;-89
2022/07/17 03:48:53;;;;;;;5.60;2.75;;;;;;;21.78;68.85;94854.06;4926312;29;20020;-89
2022/07/17 03:51:18;;;;;;;4.25;3.20;;;;;;;21.77;69.49;94865.84;4941859;29;20041;-89
2022/07/17 03:53:44;;;;;;;7.88;2.97;;;;;;;21.57;69.91;94865.50;4941863;29;20023;-89
2022/07/17 03:56:09;;;;;;;5.50;3.40;;;;;;;21.39;74.13;94862.19;4941655;29;20055;-90
2022/07/17 03:58:35;;;;;;;4.55;3.30;;;;;;;21.33;73.22;94868.81;4935985;29;20034;-89
2022/07/17 04:01:00;;;;;;;5.22;3.10;;;;;;;21.47;73.81;94863.22;4958607;29;20083;-89
2022/07/17 04:03:29;;;;;;;6.80;3.60;;;;;;;21.37;77.87;94861.75;4940964;29;20125;-90
2022/07/17 04:05:55;;;;;;;8.07;3.30;;;;;;;21.26;77.16;94864.00;4941411;29;20445;-89
2022/07/17 04:08:20;;;;;;;8.70;3.15;;;;;;;21.53;73.92;94871.81;4958580;29;20023;-90
2022/07/17 04:10:45;;;;;;;5.20;2.97;;;;;;;21.73;72.42;94880.94;4973294;28;20035;-90
2022/07/17 04:13:11;;;;;;;9.23;3.33;;;;;;;21.77;69.50;94876.53;4941473;29;20155;-89
2022/07/17 04:18:22;;;;;;;6.47;2.90;;;;;;;21.96;71.07;94885.97;4970971;28;20038;-90
2022/07/17 04:20:48;;;;;;;6.45;3.78;;;;;;;21.94;74.55;94890.81;4973378;28;20524;-90
2022/07/17 04:23:14;;;;;;;7.63;4.10;;;;;;;21.98;76.38;94892.50;4941143;29;20118;-90
2022/07/17 04:25:40;;;;;;;6.65;3.47;;;;;;;22.01;77.06;94886.50;4973449;28;20488;-89
2022/07/17 04:28:06;;;;;;;6.30;3.47;;;;;;;21.94;78.88;94896.94;4958455;29;20034;-89
2022/07/17 04:30:32;;;;;;;8.00;3.90;;;;;;;21.80;82.83;94889.19;4941362;29;20027;-89
2022/07/17 04:32:58;;;;;;;6.30;3.78;;;;;;;21.69;88.76;94894.16;4941375;29;20451;-91
2022/07/17 04:35:24;;;;;;;8.65;4.05;;;;;;;21.61;89.33;94887.75;4941472;29;20027;-91
2022/07/17 04:37:49;;;;;;;9.52;3.83;;;;;;;21.22;95.88;94892.38;4957457;29;20110;-91
2022/07/17 04:40:15;;;;;;;6.93;3.55;;;;;;;21.50;92.47;94894.56;4957730;29;20186;-91
2022/07/17 04:42:40;;;;;;;5.50;3.83;;;;;;;21.67;92.93;94899.03;4925392;29;20356;-91
2022/07/17 04:45:06;;;;;;;7.57;3.75;;;;;;;21.48;90.29;94896.78;4973673;28;20031;-92
2022/07/17 04:47:33;;;;;;;6.28;3.58;;;;;;;21.56;91.62;94903.16;4941591;29;20050;-91
2022/07/17 04:49:58;;;;;;;8.55;3.75;;;;;;;21.66;89.65;94900.13;4973630;28;20030;-91
2022/07/17 04:52:24;;;;;;;5.75;3.88;;;;;;;21.72;87.48;94900.72;4973651;28;20023;-90
2022/07/17 04:54:49;;;;;;;7.70;3.88;;;;;;;21.52;88.89;94908.38;4972982;28;20448;-90
2022/07/17 04:57:15;;;;;;;4.85;3.50;;;;;;;21.41;98.62;94907.94;4957345;29;20365;-89
2022/07/17 04:59:40;;;;;;;6.68;3.80;;;;;;;21.17;100.00;94909.34;4941210;29;20027;-90
2022/07/17 05:02:07;;;;;;;5.93;3.85;;;;;;;21.19;97.02;94909.03;4941262;29;20027;-90
2022/07/17 05:04:32;;;;;;;6.90;3.50;;;;;;;21.25;100.00;94910.41;4956701;29;20027;-89
2022/07/17 05:06:58;;;;;;;6.03;3.70;;;;;;;21.42;100.00;94914.06;4973110;28;20115;-89
2022/07/17 05:09:24;;;;;;;6.15;3.63;;;;;;;21.73;100.00;94924.41;4972919;28;20027;-86
2022/07/17 05:11:50;;;;;;;9.90;4.18;;;;;;;21.80;100.00;94929.19;4972809;28;20368;-87
2022/07/17 05:14:15;;;;;;;5.32;3.40;;;;;;;21.97;100.00;94924.84;4941276;29;20035;-87
2022/07/17 05:16:41;;;;;;;4.40;3.58;;;;;;;22.18;100.00;94927.50;4941254;29;20023;-87
2022/07/17 05:19:06;;;;;;;7.63;3.45;;;;;;;22.09;100.00;94932.91;4974103;28;20322;-87
2022/07/17 05:21:32;;;;;;;7.53;3.70;;;;;;;22.29;100.00;94927.88;4960682;29;20078;-87
2022/07/17 05:23:57;;;;;;;6.50;3.53;;;;;;;22.36;100.00;94935.34;4944431;29;20114;-87
2022/07/17 05:26:24;;;;;;;5.40;4.07;;;;;;;22.40;100.00;94944.25;4960659;29;20042;-87
2022/07/17 05:28:49;;;;;;;6.80;3.67;;;;;;;22.51;100.00;94931.28;4944164;29;20058;-87
2022/07/17 05:31:15;;;;;;;6.45;3.90;;;;;;;22.85;100.00;94940.06;4944177;29;20077;-87
2022/07/17 05:33:40;;;;;;;8.20;4.47;;;;;;;22.66;100.00;94937.91;4960360;29;20031;-88
2022/07/17 05:36:05;;;;;;;11.27;4.45;;;;;;;22.93;100.00;94939.16;4944316;29;20432;-87
2022/07/17 05:38:31;;;;;;;5.88;3.70;;;;;;;23.10;100.00;94945.44;4961201;29;20075;-86
2022/07/17 05:40:56;;;;;;;6.13;3.35;;;;;;;22.96;100.00;94945.72;4975888;28;20035;-88
2022/07/17 05:43:22;;;;;;;8.95;3.85;;;;;;;23.31;100.00;94953.34;4960120;29;20035;-88
2022/07/17 05:45:47;;;;;;;4.90;3.45;;;;;;;23.31;98.47;94958.69;4976104;28;20425;-88
2022/07/17 05:48:13;;;;;;;5.65;3.75;;;;;;;23.51;99.05;94948.97;4943850;29;20031;-89
2022/07/17 05:50:38;;;;;;;5.97;3.50;;;;;;;23.58;94.96;94953.78;4975857;28;20031;-88
2022/07/17 05:53:04;;;;;;;4.60;3.22;;;;;;;23.53;90.01;94949.44;4975747;28;20031;-88
2022/07/17 05:55:29;;;;;;;6.50;3.42;;;;;;;23.66;97.60;94954.75;4960943;29;20035;-88
2022/07/17 05:57:55;;;;;;;5.72;4.28;;;;;;;23.78;95.29;94949.38;4959795;29;20039;-89
2022/07/17 06:00:20;;;;;;;7.45;4.40;;;;;;;23.87;98.29;94954.59;4975978;28;20328;-88
2022/07/17 06:02:46;;;;;;;10.60;4.15;;;;;;;23.77;100.00;94957.78;4959452;29;20484;-88
2022/07/17 06:05:11;;;;;;;7.53;3.50;;;;;;;23.94;93.56;94957.50;4943606;29;20031;-88
2022/07/17 06:07:37;;;;;;;5.30;3.25;;;;;;;24.11;87.52;94958.38;4927602;29;20079;-88
2022/07/17 06:10:04;;;;;;;5.20;3.17;;;;;;;23.80;85.60;94963.19;4943378;29;20082;-88
2022/07/17 06:12:30;;;;;;;5.65;2.97;;;;;;;24.18;87.90;94971.19;4943153;29;20405;-89
2022/07/17 06:14:55;;;;;;;5.25;3.22;;;;;;;23.99;84.18;94967.97;4943255;29;20066;-88
2022/07/17 06:17:21;;;;;;;12.82;3.67;;;;;;;24.31;80.66;94961.97;4960180;29;20063;-89
2022/07/17 06:19:46;;;;;;;7.30;3.38;;;;;;;24.53;81.39;94970.56;4959095;29;20047;-88
2022/07/17 06:22:11;;;;;;;6.07;3.70;;;;;;;24.33;83.95;94973.13;4975296;28;20070;-88
2022/07/17 06:24:37;;;;;;;4.20;2.72;;;;;;;24.33;86.84;94973.13;4975114;28;20042;-88
2022/07/17 06:27:02;;;;;;;6.18;3.03;;;;;;;24.26;82.08;94979.06;4960316;29;20421;-88
2022/07/17 06:29:28;;;;;;;4.63;3.15;;;;;;;24.20;81.25;94974.28;4975213;28;20070;-90
2022/07/17 06:31:53;;;;;;;5.25;3.03;;;;;;;24.27;80.26;94979.84;4958015;28;20429;-90
2022/07/17 06:34:19;;;;;;;9.98;3.72;;;;;;;23.60;82.36;94975.63;4974707;28;20031;-90
2022/07/17 06:36:44;;;;;;;4.53;3.22;;;;;;;24.00;81.44;94974.88;4974759;28;20466;-88
2022/07/17 06:39:10;;;;;;;9.07;3.33;;;;;;;24.24;83.01;94972.47;4974900;28;20093;-88
2022/07/17 06:41:35;;;;;;;7.45;3.30;;;;;;;24.61;80.55;94990.31;4955720;28;20521;-87
2022/07/17 06:44:01;;;;;;;7.70;3.40;;;;;;;24.79;81.80;94982.75;4955548;29;20036;-87
2022/07/17 06:46:26;;;;;;;5.13;3.47;;;;;;;24.90;82.83;94983.06;4940757;29;20091;-87
2022/07/17 06:48:52;;;;;;;6.63;3.33;;;;;;;25.21;79.67;94984.94;4939882;29;20028;-87
2022/07/17 06:51:18;;;;;;;4.68;3.40;;;;;;;25.20;81.21;94990.66;4940509;29;20068;-87
2022/07/17 06:53:43;;;;;;;9.80;3.40;;;;;;;24.90;84.56;94986.50;4940050;29;20433;-88
2022/07/17 06:56:09;;;;;;;6.15;3.72;;;;;;;25.15;85.14;94994.38;4939400;29;20039;-87
2022/07/17 06:58:35;;;;;;;7.47;3.88;;;;;;;25.26;84.18;94986.59;4923685;29;20122;-88
2022/07/17 07:01:00;;;;;;;5.95;3.35;;;;;;;25.42;88.90;94991.97;4937303;29;20039;-87
2022/07/17 07:03:26;;;;;;;6.28;3.58;;;;;;;25.94;84.10;94989.28;4942533;29;20340;-87
2022/07/17 07:05:51;;;;;;;5.85;3.60;;;;;;;25.87;93.18;94991.81;4942689;29;20035;-87
2022/07/17 07:08:17;;;;;;;5.07;3.50;;;;;;;26.05;90.16;94989.53;4942507;29;20059;-88
2022/07/17 07:10:42;;;;;;;4.28;3.20;;;;;;;25.69;96.51;94990.28;4942511;29;20035;-88
2022/07/17 07:13:08;;;;;;;5.35;3.45;;;;;;;25.75;93.42;94998.06;4926758;29;20035;-88
2022/07/17 07:15:34;;;;;;;7.07;3.17;;;;;;;25.91;88.63;94998.03;4942538;29;20090;-88
2022/07/17 07:17:59;;;;;;;4.97;3.20;;;;;;;25.85;85.84;94996.75;4942633;29;20038;-88
2022/07/17 07:20:25;;;;;;;5.35;3.13;;;;;;;25.83;88.27;94997.09;4942323;29;20127;-88
2022/07/17 07:22:51;;;;;;;7.10;3.53;;;;;;;26.17;83.50;95002.78;4942360;29;20035;-87
2022/07/17 07:25:16;;;;;;;10.40;3.72;;;;;;;26.18;89.75;94999.03;4942254;29;20039;-87
2022/07/17 07:27:42;;;;;;;8.93;3.75;;;;;;;26.04;84.11;94999.47;4944853;28;20034;-87
2022/07/17 07:30:11;;;;;;;10.98;6.68;;;;;;;26.46;88.48;95005.31;4978117;28;20486;-87
2022/07/17 07:32:38;;;;;;;691.95;351.30;;;;;;;26.48;79.66;95000.34;4961687;28;20448;-88
2022/07/17 07:35:05;;;;;;;954.10;454.75;;;;;;;26.64;76.87;95000.28;4960862;28;20031;-87
2022/07/17 07:37:30;;;;;;;40.15;13.27;;;;;;;26.60;74.41;95008.28;4961972;28;20425;-88
2022/07/17 07:39:56;;;;;;;233.98;83.18;;;;;;;26.51;74.41;95002.31;4979212;28;20045;-87
2022/07/17 07:42:21;;;;;;;1999.90;839.45;;;;;;;26.65;76.66;95007.22;4961393;28;20066;-88
2022/07/17 07:44:47;;;;;;;1030.07;418.48;;;;;;;26.95;77.95;95015.44;4961283;28;20436;-87
2022/07/17 07:47:12;;;;;;;261.00;41.28;;;;;;;27.00;73.60;95014.38;4942407;29;20038;-88
2022/07/17 07:49:37;;;;;;;207.10;35.95;;;;;;;27.07;72.71;95017.19;4960027;29;20031;-88
2022/07/17 07:52:03;;;;;;;7.25;3.85;;;;;;;26.95;69.39;95022.75;4959020;29;20089;-87
2022/07/17 07:54:29;;;;;;;7.28;3.15;;;;;;;26.89;67.08;95016.88;4943196;29;20078;-87
2022/07/17 07:56:54;;;;;;;5.45;3.33;;;;;;;27.14;70.72;95016.56;4941857;29;20038;-88
2022/07/17 07:59:20;;;;;;;5.15;3.08;;;;;;;27.02;68.89;95019.41;4926387;29;20089;-88
2022/07/17 08:01:46;;;;;;;3.50;2.70;;;;;;;27.20;67.69;95017.03;4941637;29;20035;-88
2022/07/17 08:04:11;;;;;;;5.13;2.75;;;;;;;27.28;68.62;95026.75;4941871;29;20093;-88
2022/07/17 08:06:38;;;;;;;6.63;2.95;;;;;;;27.51;67.38;95025.97;4926032;29;20031;-87
2022/07/17 08:09:04;;;;;;;244.63;40.55;;;;;;;27.63;68.09;95025.03;4941710;29;20037;-88
2022/07/17 08:11:29;;;;;;;7.07;3.40;;;;;;;27.79;71.71;95030.25;4925980;29;20421;-88
2022/07/17 08:13:55;;;;;;;4.57;2.92;;;;;;;27.63;70.57;95033.88;4941897;29;20031;-87
2022/07/17 08:16:20;;;;;;;4.70;2.72;;;;;;;27.79;70.61;95033.72;4958709;29;20034;-87
2022/07/17 08:18:46;;;;;;;6.57;2.80;;;;;;;27.54;76.10;95040.63;4973418;28;20039;-87
2022/07/17 08:21:11;;;;;;;5.93;3.50;;;;;;;27.38;69.71;95041.50;4957240;29;20071;-88
2022/07/17 08:23:37;;;;;;;4.60;2.80;;;;;;;27.50;71.88;95037.88;4925877;29;20027;-87
2022/07/17 08:26:02;;;;;;;11.02;3.30;;;;;;;27.72;73.76;95040.91;4958632;29;20031;-88
2022/07/17 08:28:28;;;;;;;4.55;2.90;;;;;;;28.04;67.72;95041.38;4957712;29;20063;-87
2022/07/17 08:30:53;;;;;;;5.35;3.22;;;;;;;27.68;72.81;95042.78;4941527;29;20376;-88
2022/07/17 08:33:19;;;;;;;51.15;28.30;;;;;;;27.72;73.17;95049.00;4941419;29;20038;-87
2022/07/17 08:35:44;;;;;;;5.57;3.10;;;;;;;27.78;72.02;95047.56;4925816;29;20492;-87
2022/07/17 08:38:10;;;;;;;5.65;3.10;;;;;;;27.79;72.77;95047.19;4941332;29;20062;-88
2022/07/17 08:40:36;;;;;;;5.32;3.20;;;;;;;27.49;71.77;95042.47;4941371;29;20429;-88
2022/07/17 08:43:04;;;;;;;5.32;3.28;;;;;;;27.41;73.31;95040.81;4941283;29;20031;-87
2022/07/17 08:45:29;;;;;;;9.05;3.10;;;;;;;27.29;76.26;95046.38;4941256;29;20110;-87
2022/07/17 08:47:56;;;;;;;3.97;3.10;;;;;;;27.69;78.53;95047.81;4957428;29;20031;-87
2022/07/17 08:50:31;;;;;;;7.32;3.03;;;;;;;27.62;76.07;95048.47;4940887;29;20035;-87
2022/07/17 08:52:57;;;;;;;5.55;3.42;;;;;;;27.47;77.60;95052.81;4941123;28;20049;-87
2022/07/17 08:55:23;;;;;;;9.60;3.55;;;;;;;27.62;79.47;95053.88;4943889;29;20034;-86
2022/07/17 08:57:48;;;;;;;12.00;3.92;;;;;;;27.89;78.30;95050.41;4944524;29;20035;-88
2022/07/17 09:00:16;;;;;;;16.65;3.63;;;;;;;28.07;76.99;95054.13;4944868;29;20067;-88
2022/07/17 09:03:06;;;;;;;11.55;3.13;;;;;;;28.26;78.28;95055.16;4944718;29;20061;-88
2022/07/17 09:05:34;;;;;;;5.72;3.20;;;;;;;27.96;77.69;95055.13;4944999;29;20405;-88
2022/07/17 09:08:00;;;;;;;7.13;3.20;;;;;;;27.90;80.88;95052.75;4925431;29;20032;-85
2022/07/17 09:10:45;;;;;;;5.32;3.45;;;;;;;27.89;81.35;95061.16;4941049;29;20126;-86
2022/07/17 09:13:28;;;;;;;10.05;3.47;;;;;;;28.02;81.95;95061.72;4942342;29;20388;-86
2022/07/17 09:15:58;;;;;;;9.57;3.80;;;;;;;27.82;81.93;95061.06;4942217;29;20114;-87
2022/07/17 09:18:24;;;;;;;8.68;3.55;;;;;;;27.98;83.58;95058.22;4944036;29;20349;-85
2022/07/17 09:20:54;;;;;;;8.40;3.60;;;;;;;28.43;80.07;95061.91;4961075;28;20039;-85
2022/07/17 09:23:23;;;;;;;59.65;36.92;;;;;;;28.25;82.78;95058.22;4954676;29;20058;-86
2022/07/17 09:25:51;;;;;;;48.47;27.73;;;;;;;28.25;88.36;95053.59;4944665;29;20031;-88
2022/07/17 09:28:18;;;;;;;6.95;4.30;;;;;;;28.58;86.42;95054.78;4960953;29;20353;-87
2022/07/17 09:30:46;;;;;;;14.90;4.20;;;;;;;28.36;85.37;95053.75;4944379;29;20118;-90
2022/07/17 09:33:17;;;;;;;6.82;3.60;;;;;;;28.91;88.26;95053.25;4960519;29;20038;-88
2022/07/17 09:36:08;;;;;;;8.55;3.65;;;;;;;28.69;85.50;95056.81;4961520;29;20425;-88
2022/07/17 09:38:41;;;;;;;10.80;3.63;;;;;;;28.57;88.13;95055.94;4944240;29;20039;-88
2022/07/17 09:41:12;;;;;;;7.20;3.28;;;;;;;28.54;87.81;95056.66;4944269;29;20496;-89
2022/07/17 09:43:40;;;;;;;9.05;3.20;;;;;;;28.32;90.90;95059.09;4944263;29;20031;-87
2022/07/17 09:46:08;;;;;;;5.45;3.38;;;;;;;28.74;91.17;95051.13;4961155;29;20035;-88
2022/07/17 09:48:34;;;;;;;4.32;3.60;;;;;;;28.96;95.22;95054.84;4943932;29;20058;-88
2022/07/17 09:51:00;;;;;;;9.73;3.72;;;;;;;28.39;96.39;95066.50;4928470;29;20409;-88
2022/07/17 09:53:33;;;;;;;6.85;3.22;;;;;;;28.41;94.89;95058.81;4928482;29;20062;-88
2022/07/17 09:56:02;;;;;;;6.95;3.47;;;;;;;28.73;95.90;95054.97;4928799;29;20035;-88
2022/07/17 09:58:28;;;;;;;8.23;3.42;;;;;;;29.14;91.43;95065.03;4943965;29;20031;-88
2022/07/17 10:00:54;;;;;;;5.88;3.22;;;;;;;28.76;87.14;95055.00;4943562;29;20352;-88
2022/07/17 10:03:20;;;;;;;5.13;3.60;;;;;;;29.07;89.13;95060.34;4944174;29;20027;-89
2022/07/17 10:05:46;;;;;;;6.05;3.47;;;;;;;29.41;88.91;95057.59;4943410;29;20429;-87
2022/07/17 10:08:12;;;;;;;7.15;3.70;;;;;;;29.03;86.43;95051.44;4943681;29;20027;-87
2022/07/17 10:10:37;;;;;;;8.00;4.38;;;;;;;29.24;93.23;95053.56;4927847;29;20031;-87
2022/07/17 10:13:06;;;;;;;7.28;3.83;;;;;;;28.99;96.05;95059.50;4943544;29;20038;-89
2022/07/17 10:15:31;;;;;;;9.00;4.10;;;;;;;29.12;89.69;95053.84;4943836;29;20174;-87
2022/07/17 10:18:05;;;;;;;6.03;4.05;;;;;;;29.18;92.92;95057.75;4960409;29;20126;-87
2022/07/17 10:20:30;;;;;;;7.45;3.80;;;;;;;29.34;96.07;95058.28;4959547;28;20090;-88
2022/07/17 10:22:59;;;;;;;9.70;3.80;;;;;;;29.77;99.91;95057.13;4975300;28;20329;-89
2022/07/17 10:25:25;;;;;;;8.82;4.50;;;;;;;29.36;95.60;95060.59;4943804;29;20097;-88
2022/07/17 10:27:56;;;;;;;10.18;4.30;;;;;;;28.90;98.84;95061.69;4975597;28;20031;-89
2022/07/17 10:30:26;;;;;;;6.22;3.65;;;;;;;29.10;98.42;95065.00;4943366;29;20031;-88
2022/07/17 10:33:00;;;;;;;10.38;4.03;;;;;;;29.41;93.85;95068.38;4942845;29;20027;-88
2022/07/17 10:35:28;;;;;;;5.35;4.15;;;;;;;29.37;97.40;95069.50;4974655;28;20031;-87
2022/07/17 10:37:57;;;;;;;4.68;3.78;;;;;;;29.31;95.13;95060.97;4942754;29;20432;-88
2022/07/17 10:40:28;;;;;;;7.38;4.35;;;;;;;29.69;95.44;95067.06;4942424;29;20031;-88
2022/07/17 10:43:01;;;;;;;6.15;4.50;;;;;;;28.69;99.70;95068.38;4960046;29;20031;-88
2022/07/17 10:45:42;;;;;;;7.53;4.60;;;;;;;29.22;94.88;95063.97;4959760;29;20035;-89
2022/07/17 10:48:19;;;;;;;9.27;5.03;;;;;;;29.16;100.00;95063.53;4943322;29;20031;-90
2022/07/17 10:50:53;;;;;;;7.88;4.10;;;;;;;29.30;98.78;95062.09;4958555;29;20471;-88
2022/07/17 10:53:30;;;;;;;7.35;4.40;;;;;;;29.48;97.82;95070.38;4942695;29;20034;-88
2022/07/17 10:55:56;;;;;;;8.00;4.85;;;;;;;29.04;99.71;95066.47;4974886;28;20050;-90
2022/07/17 10:58:28;;;;;;;7.25;4.55;;;;;;;29.08;100.00;95063.81;4958506;29;20476;-89
2022/07/17 11:01:13;;;;;;;10.50;5.43;;;;;;;28.86;100.00;95066.28;4974522;28;20302;-88
2022/07/17 11:03:52;;;;;;;7.40;4.82;;;;;;;29.43;100.00;95076.13;4907831;29;20460;-87
2022/07/17 11:06:19;;;;;;;9.20;5.60;;;;;;;29.16;100.00;95074.31;4923672;29;20032;-89
2022/07/17 11:08:46;;;;;;;6.57;4.85;;;;;;;28.94;100.00;95062.53;4940478;29;20024;-88
2022/07/17 11:11:12;;;;;;;10.73;4.90;;;;;;;29.64;99.67;95064.72;4907917;29;20090;-88
2022/07/17 11:13:38;;;;;;;8.75;4.72;;;;;;;28.99;100.00;95061.44;4923635;29;20072;-88
2022/07/17 11:16:03;;;;;;;7.80;5.00;;;;;;;28.96;100.00;95062.16;4923319;29;20468;-90
2022/07/17 11:18:29;;;;;;;9.55;5.07;;;;;;;29.07;100.00;95060.34;4922545;29;20066;-89
2022/07/17 11:20:59;;;;;;;8.50;4.75;;;;;;;29.26;100.00;95066.66;4939320;29;20038;-89
2022/07/17 11:23:30;;;;;;;7.50;4.50;;;;;;;29.27;100.00;95065.56;4923218;29;20058;-89
2022/07/17 11:25:56;;;;;;;8.02;4.40;;;;;;;30.15;100.00;95067.78;4923549;29;20091;-88
2022/07/17 11:28:34;;;;;;;7.57;4.25;;;;;;;30.56;89.83;95064.13;4923660;29;20103;-88
2022/07/17 11:31:01;;;;;;;10.77;4.80;;;;;;;30.20;94.18;95059.31;4939316;29;20087;-89
2022/07/17 11:33:28;;;;;;;12.15;4.90;;;;;;;29.98;93.99;95059.16;4923027;29;20477;-90
2022/07/17 11:35:54;;;;;;;13.65;4.63;;;;;;;30.03;90.63;95064.25;4955046;29;20034;-90